Time;durP1;ratioP1;P1;durP2;ratioP2;P2;SDS_P1;SDS_P2;PMS_P1;PMS_P2;Temp;Humidity;BMP_temperature;BMP_pressure;BME280_temperature;BME280_humidity;BME280_pressure;Samples;Min_cycle;Max_cycle;Signal;HPM_P1;HPM_P2
2022/07/31 00:02:17;;;;;;;1.95;1.30;;;21.70;61.40;;;;;;6253401;28;20061;-78
2022/07/31 00:05:20;;;;;;;2.10;0.88;;;21.60;61.80;;;;;;6253237;28;20045;-78
2022/07/31 00:08:22;;;;;;;1.58;0.82;;;21.50;62.40;;;;;;6252888;28;20050;-78
2022/07/31 00:11:23;;;;;;;2.05;0.90;;;21.40;62.90;;;;;;6252361;28;20045;-78
2022/07/31 00:14:25;;;;;;;2.10;0.80;;;21.20;63.50;;;;;;6252820;28;20053;-77
2022/07/31 00:17:27;;;;;;;2.83;0.90;;;21.10;64.00;;;;;;6252920;28;20069;-77
2022/07/31 00:20:31;;;;;;;1.15;0.63;;;21.00;64.50;;;;;;6252183;28;20046;-77
2022/07/31 00:23:32;;;;;;;1.10;0.52;;;20.90;65.10;;;;;;6253777;28;20050;-76
2022/07/31 00:26:34;;;;;;;1.42;0.77;;;20.80;65.40;;;;;;6254451;28;20041;-78
2022/07/31 00:29:36;;;;;;;3.42;1.00;;;20.70;65.60;;;;;;6253135;28;20042;-79
2022/07/31 00:32:38;;;;;;;2.58;0.90;;;20.70;66.10;;;;;;6253404;28;20057;-77
2022/07/31 00:35:41;;;;;;;4.60;1.15;;;20.50;66.30;;;;;;6253075;28;20041;-79
2022/07/31 00:38:43;;;;;;;2.15;1.05;;;20.50;66.60;;;;;;6255077;28;20049;-78
2022/07/31 00:41:45;;;;;;;4.22;0.82;;;20.50;67.00;;;;;;6253300;28;20411;-77
2022/07/31 00:44:47;;;;;;;1.98;0.60;;;20.40;67.20;;;;;;6251040;28;20050;-78
2022/07/31 00:47:49;;;;;;;5.03;1.20;;;20.30;67.80;;;;;;6251505;28;20443;-78
2022/07/31 00:50:52;;;;;;;2.35;0.80;;;20.20;68.10;;;;;;6252381;28;20052;-80
2022/07/31 00:53:55;;;;;;;5.00;1.08;;;20.20;68.60;;;;;;6252682;28;20042;-77
2022/07/31 00:56:56;;;;;;;2.58;0.80;;;20.10;69.00;;;;;;6252192;28;20055;-77
2022/07/31 00:59:58;;;;;;;1.58;0.93;;;20.00;69.50;;;;;;6251596;28;20431;-76
2022/07/31 01:03:00;;;;;;;2.47;1.10;;;19.90;70.00;;;;;;6252249;28;20049;-77
2022/07/31 01:06:03;;;;;;;1.73;0.68;;;19.80;70.30;;;;;;6251722;28;20048;-78
2022/07/31 01:09:05;;;;;;;2.42;1.08;;;19.70;70.30;;;;;;6252217;28;20046;-77
2022/07/31 01:12:12;;;;;;;3.38;0.88;;;19.70;70.80;;;;;;6252393;28;20427;-76
2022/07/31 01:15:15;;;;;;;1.70;1.02;;;19.70;71.00;;;;;;6251049;28;20050;-79
2022/07/31 01:18:18;;;;;;;1.73;0.90;;;19.70;71.60;;;;;;6251293;28;20049;-79
2022/07/31 01:21:27;;;;;;;1.40;0.80;;;19.50;72.20;;;;;;6251985;28;20415;-77
2022/07/31 01:24:49;;;;;;;1.83;1.05;;;19.40;72.80;;;;;;6252212;28;20128;-79
2022/07/31 01:28:02;;;;;;;2.13;1.00;;;19.40;72.80;;;;;;6251780;28;20050;-78
2022/07/31 01:31:08;;;;;;;1.60;1.10;;;19.40;72.90;;;;;;6252056;28;20045;-79
2022/07/31 01:34:19;;;;;;;1.30;1.20;;;19.40;73.40;;;;;;6252590;28;20056;-79
2022/07/31 01:37:26;;;;;;;1.58;0.77;;;19.30;73.90;;;;;;6249865;28;20499;-81
2022/07/31 01:40:34;;;;;;;2.08;1.05;;;19.20;74.30;;;;;;6251748;28;20053;-79
2022/07/31 01:43:39;;;;;;;1.20;0.85;;;19.20;74.20;;;;;;6252072;28;20073;-79
2022/07/31 01:46:44;;;;;;;1.20;0.57;;;19.20;74.30;;;;;;6253383;28;20056;-78
2022/07/31 01:49:48;;;;;;;2.20;1.13;;;19.10;74.50;;;;;;6252634;28;20041;-77
2022/07/31 01:52:51;;;;;;;2.08;1.05;;;19.10;75.00;;;;;;6250972;28;20056;-77
2022/07/31 01:55:55;;;;;;;6.75;1.13;;;19.00;75.30;;;;;;6249806;28;20055;-79
2022/07/31 01:58:59;;;;;;;1.33;1.15;;;18.90;75.70;;;;;;6248811;28;20045;-78
2022/07/31 02:02:03;;;;;;;2.22;1.20;;;18.90;76.10;;;;;;6250709;28;20048;-79
2022/07/31 02:05:06;;;;;;;1.33;0.70;;;18.80;76.40;;;;;;6249086;28;20056;-78
2022/07/31 02:08:10;;;;;;;1.60;1.10;;;18.70;76.60;;;;;;6250481;28;20119;-78
2022/07/31 02:11:13;;;;;;;2.78;1.10;;;18.60;77.10;;;;;;6250345;28;20049;-79
2022/07/31 02:14:17;;;;;;;1.50;0.77;;;18.60;77.60;;;;;;6250111;28;20100;-79
2022/07/31 02:17:20;;;;;;;2.38;1.33;;;18.50;77.90;;;;;;6249264;28;20041;-78
2022/07/31 02:20:23;;;;;;;1.45;0.90;;;18.40;78.10;;;;;;6250398;28;20045;-78
2022/07/31 02:23:25;;;;;;;2.88;1.27;;;18.40;78.70;;;;;;6249551;28;20049;-80
2022/07/31 02:26:31;;;;;;;3.90;1.30;;;18.40;79.30;;;;;;6249876;28;20045;-79
2022/07/31 02:29:33;;;;;;;2.70;1.05;;;18.30;79.50;;;;;;6250220;28;20041;-78
2022/07/31 02:32:37;;;;;;;1.92;1.20;;;18.30;79.70;;;;;;6250667;28;20045;-79
2022/07/31 02:35:44;;;;;;;1.88;0.95;;;18.30;80.00;;;;;;6249467;28;20049;-78
2022/07/31 02:38:46;;;;;;;2.47;1.02;;;18.20;80.20;;;;;;6249793;28;20045;-79
2022/07/31 02:41:48;;;;;;;1.63;1.00;;;18.20;80.40;;;;;;6250018;28;20065;-79
2022/07/31 02:44:51;;;;;;;2.28;1.10;;;18.20;80.50;;;;;;6253137;28;20053;-78
2022/07/31 02:47:55;;;;;;;3.88;1.10;;;18.20;80.90;;;;;;6254237;28;20049;-77
2022/07/31 02:50:57;;;;;;;1.33;0.77;;;18.10;81.20;;;;;;6254855;28;20416;-78
2022/07/31 02:53:59;;;;;;;2.47;1.40;;;18.10;81.60;;;;;;6255302;28;20049;-79
2022/07/31 02:57:02;;;;;;;3.05;1.15;;;18.10;81.50;;;;;;6254837;28;20053;-78
2022/07/31 03:00:21;;;;;;;2.38;1.20;;;18.10;81.50;;;;;;6254943;28;20052;-80
2022/07/31 03:03:24;;;;;;;2.20;1.33;;;18.10;81.80;;;;;;6254446;28;20410;-79
2022/07/31 03:06:26;;;;;;;5.60;1.40;;;18.00;82.10;;;;;;6254515;28;20051;-78
2022/07/31 03:09:29;;;;;;;3.33;1.20;;;17.90;82.30;;;;;;6254322;28;20152;-79
2022/07/31 03:12:31;;;;;;;2.72;1.05;;;17.90;83.00;;;;;;6254645;28;20056;-79
2022/07/31 03:15:34;;;;;;;1.98;1.00;;;17.90;83.30;;;;;;6253794;28;20423;-79
2022/07/31 03:18:39;;;;;;;2.25;0.93;;;17.90;83.40;;;;;;6260104;23;20050;-81
2022/07/31 03:21:42;;;;;;;1.05;0.77;;;17.90;83.40;;;;;;6229920;28;20048;-82
2022/07/31 03:24:44;;;;;;;2.97;1.33;;;17.90;83.40;;;;;;6231585;28;20064;-80
2022/07/31 03:27:47;;;;;;;2.03;1.05;;;17.80;83.40;;;;;;6229507;28;20179;-80
2022/07/31 03:30:51;;;;;;;4.60;1.50;;;17.80;83.80;;;;;;6229375;28;20042;-81
2022/07/31 03:33:54;;;;;;;3.88;1.30;;;17.80;84.10;;;;;;6228600;28;20045;-80
2022/07/31 03:36:57;;;;;;;3.03;1.30;;;17.80;84.20;;;;;;6227614;28;20058;-80
2022/07/31 03:39:59;;;;;;;2.15;1.45;;;17.80;83.90;;;;;;6227981;28;20057;-81
2022/07/31 03:43:02;;;;;;;3.10;1.10;;;17.90;84.10;;;;;;6227303;28;20053;-80
2022/07/31 03:46:05;;;;;;;4.03;1.48;;;17.90;84.00;;;;;;6228239;28;20048;-81
2022/07/31 03:49:09;;;;;;;3.47;1.42;;;17.80;83.90;;;;;;6227942;28;20112;-80
2022/07/31 03:52:11;;;;;;;2.35;1.33;;;17.80;84.50;;;;;;6227047;28;20419;-80
2022/07/31 03:55:13;;;;;;;1.73;1.23;;;17.80;84.80;;;;;;6224107;28;20053;-81
2022/07/31 03:58:17;;;;;;;2.38;1.15;;;17.80;84.60;;;;;;6225871;28;20065;-80
2022/07/31 04:01:20;;;;;;;2.70;1.00;;;17.90;84.60;;;;;;6226090;28;20504;-80
2022/07/31 04:04:23;;;;;;;3.17;1.05;;;17.90;84.40;;;;;;6226630;28;20057;-80
2022/07/31 04:07:25;;;;;;;2.88;1.05;;;18.00;84.50;;;;;;6225500;28;20053;-80
2022/07/31 04:10:27;;;;;;;4.75;1.02;;;18.10;84.50;;;;;;6225292;28;20049;-80
2022/07/31 04:13:29;;;;;;;3.28;1.10;;;18.10;84.20;;;;;;6225918;28;20050;-80
2022/07/31 04:16:31;;;;;;;5.50;1.50;;;18.20;84.10;;;;;;6226302;28;20060;-81
2022/07/31 04:19:34;;;;;;;2.13;1.42;;;18.40;83.80;;;;;;6225524;28;20070;-80
2022/07/31 04:22:36;;;;;;;3.35;1.02;;;18.60;83.50;;;;;;6226295;28;20128;-80
2022/07/31 04:25:37;;;;;;;3.50;1.23;;;18.80;83.00;;;;;;6224830;28;20503;-81
2022/07/31 04:28:39;;;;;;;1.80;1.10;;;18.90;82.40;;;;;;6225691;28;20423;-82
2022/07/31 04:31:41;;;;;;;2.53;1.27;;;19.00;81.90;;;;;;6225447;28;20053;-81
2022/07/31 04:34:44;;;;;;;1.35;0.90;;;19.00;81.50;;;;;;6225644;28;20061;-80
2022/07/31 04:37:45;;;;;;;2.50;0.90;;;19.10;81.30;;;;;;6225480;28;20050;-80
2022/07/31 04:40:48;;;;;;;2.50;1.10;;;19.10;81.80;;;;;;6226217;28;20423;-80
2022/07/31 04:43:50;;;;;;;1.40;0.90;;;19.20;81.10;;;;;;6225751;28;20042;-80
2022/07/31 04:46:52;;;;;;;3.10;1.30;;;19.30;81.10;;;;;;6225180;28;20049;-81
2022/07/31 04:49:55;;;;;;;3.92;1.02;;;19.30;80.90;;;;;;6225042;28;20052;-80
2022/07/31 04:52:57;;;;;;;1.52;0.90;;;19.40;81.00;;;;;;6225436;28;20052;-81
2022/07/31 04:59:20;;;;;;;1.85;1.10;;;19.60;80.90;;;;;;6224846;28;20066;-80
2022/07/31 05:02:22;;;;;;;2.75;1.52;;;19.70;80.50;;;;;;6225337;28;20052;-80
2022/07/31 05:05:25;;;;;;;3.25;1.08;;;19.80;80.10;;;;;;6224783;28;20517;-80
2022/07/31 05:08:26;;;;;;;2.70;0.98;;;20.00;79.80;;;;;;6226492;28;20053;-82
2022/07/31 05:11:28;;;;;;;1.67;1.10;;;20.10;79.70;;;;;;6227620;28;20041;-80
2022/07/31 05:14:30;;;;;;;6.43;1.13;;;20.20;79.50;;;;;;6227637;28;20054;-81
2022/07/31 05:17:32;;;;;;;3.17;1.63;;;20.30;79.10;;;;;;6227362;28;20049;-80
2022/07/31 05:20:35;;;;;;;1.10;0.85;;;20.40;78.80;;;;;;6227020;28;20060;-81
2022/07/31 05:23:36;;;;;;;1.55;0.90;;;20.50;78.80;;;;;;6227760;28;20046;-80
2022/07/31 05:26:38;;;;;;;4.18;1.20;;;20.60;78.80;;;;;;6226876;28;20050;-81
2022/07/31 05:29:40;;;;;;;4.03;1.25;;;20.80;78.50;;;;;;6224803;28;20072;-80
2022/07/31 05:32:42;;;;;;;2.17;0.80;;;20.90;78.00;;;;;;6226072;28;20053;-82
2022/07/31 05:35:45;;;;;;;2.17;0.93;;;21.10;77.30;;;;;;6226300;28;20207;-80
2022/07/31 05:38:47;;;;;;;2.97;0.68;;;21.30;76.90;;;;;;6226687;28;20052;-81
2022/07/31 05:41:50;;;;;;;2.42;1.55;;;21.40;76.20;;;;;;6226127;28;20056;-81
2022/07/31 05:44:51;;;;;;;0.98;0.80;;;21.60;75.50;;;;;;6227708;28;20049;-81
2022/07/31 05:47:53;;;;;;;5.65;0.80;;;21.80;74.30;;;;;;6226356;28;20522;-81
2022/07/31 05:50:56;;;;;;;2.97;1.35;;;22.00;72.70;;;;;;6227645;28;20129;-81
2022/07/31 05:53:58;;;;;;;1.50;1.00;;;22.10;70.50;;;;;;6225741;28;20519;-81
2022/07/31 05:57:00;;;;;;;5.13;0.93;;;22.30;69.50;;;;;;6225384;28;20404;-80
2022/07/31 06:00:02;;;;;;;1.45;0.57;;;22.40;68.10;;;;;;6225975;28;20057;-81
2022/07/31 06:03:04;;;;;;;3.40;0.80;;;22.60;67.90;;;;;;6225247;28;20076;-81
2022/07/31 06:06:07;;;;;;;2.65;0.82;;;22.70;67.00;;;;;;6225046;28;20462;-81
2022/07/31 06:09:09;;;;;;;5.75;1.00;;;22.90;66.60;;;;;;6225656;28;20061;-82
2022/07/31 06:12:10;;;;;;;2.28;1.17;;;23.10;65.90;;;;;;6227066;28;20050;-82
2022/07/31 06:15:12;;;;;;;5.63;0.98;;;23.20;65.20;;;;;;6226611;28;20054;-81
2022/07/31 06:18:14;;;;;;;2.30;0.68;;;23.30;64.80;;;;;;6225829;28;20523;-81
2022/07/31 06:21:18;;;;;;;1.65;0.98;;;23.30;64.90;;;;;;6227286;28;20050;-81
2022/07/31 06:24:20;;;;;;;4.43;0.90;;;23.40;64.00;;;;;;6228549;28;20153;-81
2022/07/31 06:27:22;;;;;;;1.67;0.65;;;23.50;64.00;;;;;;6226398;28;20124;-81
2022/07/31 06:30:24;;;;;;;3.38;1.10;;;23.70;63.40;;;;;;6225016;28;20050;-81
2022/07/31 06:33:25;;;;;;;2.92;1.25;;;24.00;62.40;;;;;;6224819;28;20046;-81
2022/07/31 06:36:29;;;;;;;0.63;0.50;;;24.40;61.60;;;;;;6223249;28;20415;-80
2022/07/31 06:39:30;;;;;;;3.85;0.98;;;25.30;59.80;;;;;;6223369;28;20046;-80
2022/07/31 06:42:32;;;;;;;2.95;0.80;;;26.00;57.30;;;;;;6223812;28;20049;-80
2022/07/31 06:45:34;;;;;;;2.78;0.88;;;26.40;55.80;;;;;;6223510;28;20045;-81
2022/07/31 06:48:35;;;;;;;2.17;1.02;;;26.60;54.90;;;;;;6224149;28;20057;-80
2022/07/31 06:51:39;;;;;;;1.63;0.50;;;26.70;54.50;;;;;;6223137;28;20499;-80
2022/07/31 06:54:41;;;;;;;1.08;0.65;;;26.80;54.10;;;;;;6224481;28;20053;-80
2022/07/31 06:57:43;;;;;;;4.65;0.65;;;27.60;52.80;;;;;;6195549;28;20503;-80
2022/07/31 07:00:45;;;;;;;2.10;0.52;;;28.50;50.60;;;;;;6215447;28;20048;-80
2022/07/31 07:03:47;;;;;;;1.15;0.88;;;28.40;49.60;;;;;;6220706;28;20049;-80
2022/07/31 07:06:50;;;;;;;1.63;0.60;;;28.10;49.80;;;;;;6200331;28;20551;-79
2022/07/31 07:09:52;;;;;;;1.60;0.70;;;28.00;50.10;;;;;;6220850;28;20042;-80
2022/07/31 07:12:53;;;;;;;4.05;0.75;;;29.90;48.30;;;;;;6223640;28;20052;-80
2022/07/31 07:15:55;;;;;;;6.40;1.00;;;32.40;44.10;;;;;;6225342;28;20053;-82
2022/07/31 07:18:57;;;;;;;2.13;0.70;;;34.70;40.40;;;;;;6225104;28;20050;-83
2022/07/31 07:22:00;;;;;;;1.55;0.70;;;36.50;38.00;;;;;;6225945;28;20037;-82
2022/07/31 07:25:02;;;;;;;4.38;0.80;;;37.90;35.00;;;;;;6225528;28;20060;-82
2022/07/31 07:28:04;;;;;;;1.77;0.57;;;37.80;34.20;;;;;;6225280;28;20503;-83
2022/07/31 07:31:06;;;;;;;5.50;0.98;;;37.90;34.00;;;;;;6228261;28;20046;-83
2022/07/31 07:34:08;;;;;;;5.43;0.73;;;37.20;34.00;;;;;;6228852;28;20048;-82
2022/07/31 07:37:12;;;;;;;1.42;0.60;;;36.60;34.70;;;;;;6228764;28;20080;-82
2022/07/31 07:40:15;;;;;;;1.33;0.60;;;35.60;35.40;;;;;;6230803;28;20061;-82
2022/07/31 07:43:17;;;;;;;9.38;1.00;;;35.10;36.10;;;;;;6229318;28;20181;-82
2022/07/31 07:46:19;;;;;;;1.42;0.68;;;35.30;36.50;;;;;;6229173;28;20056;-82
2022/07/31 07:49:21;;;;;;;4.32;0.68;;;37.20;34.70;;;;;;6229573;28;20049;-83
2022/07/31 07:52:24;;;;;;;2.75;0.50;;;38.70;33.10;;;;;;6230097;28;20056;-83
2022/07/31 07:55:26;;;;;;;2.90;0.70;;;39.50;31.90;;;;;;6229289;28;20605;-83
2022/07/31 07:58:28;;;;;;;2.17;0.63;;;40.50;30.80;;;;;;6230417;28;20059;-84
2022/07/31 08:01:30;;;;;;;2.25;0.65;;;41.40;30.20;;;;;;6229870;28;20045;-84
2022/07/31 08:04:31;;;;;;;2.10;0.38;;;42.00;29.60;;;;;;6228353;28;20056;-83
2022/07/31 08:07:37;;;;;;;6.25;0.70;;;42.40;29.30;;;;;;6228139;28;20050;-82
2022/07/31 08:10:39;;;;;;;3.33;0.60;;;43.10;29.00;;;;;;6229969;28;20045;-82
2022/07/31 08:13:41;;;;;;;2.90;1.20;;;43.60;28.40;;;;;;6218135;28;20042;-83
2022/07/31 08:16:43;;;;;;;0.70;0.47;;;43.70;28.20;;;;;;6226840;28;20060;-83
2022/07/31 08:19:45;;;;;;;1.17;0.50;;;43.50;28.10;;;;;;6231296;28;20046;-83
2022/07/31 08:22:48;;;;;;;1.48;0.50;;;43.30;28.20;;;;;;6231290;28;20042;-84
2022/07/31 08:25:50;;;;;;;1.17;0.50;;;43.60;28.00;;;;;;6231621;28;20076;-84
2022/07/31 08:28:52;;;;;;;3.00;0.70;;;44.20;27.40;;;;;;6232047;28;20508;-83
2022/07/31 08:31:54;;;;;;;3.75;0.55;;;44.70;27.30;;;;;;6231495;28;20404;-83
2022/07/31 08:34:56;;;;;;;3.28;0.25;;;45.30;26.90;;;;;;6231755;28;20053;-83
2022/07/31 08:37:59;;;;;;;1.65;0.52;;;44.80;27.00;;;;;;6230629;28;20046;-82
2022/07/31 08:41:01;;;;;;;2.38;0.63;;;44.60;26.90;;;;;;6229812;28;20054;-83
2022/07/31 08:44:03;;;;;;;1.20;0.55;;;44.50;26.90;;;;;;6230474;28;20057;-83
2022/07/31 08:47:06;;;;;;;0.85;0.38;;;45.00;27.20;;;;;;6214915;28;20061;-83
2022/07/31 08:50:11;;;;;;;4.82;0.52;;;45.30;26.20;;;;;;6205192;28;20516;-83
2022/07/31 08:53:15;;;;;;;1.20;0.57;;;45.20;26.40;;;;;;6205581;28;20105;-83
2022/07/31 08:56:18;;;;;;;3.17;0.57;;;44.90;26.40;;;;;;6205742;28;20050;-82
2022/07/31 08:59:20;;;;;;;1.67;0.40;;;44.60;26.60;;;;;;6207218;28;20061;-83
2022/07/31 09:02:22;;;;;;;4.63;0.47;;;44.50;26.50;;;;;;6229183;28;20038;-82
2022/07/31 09:05:24;;;;;;;1.17;0.43;;;44.30;27.00;;;;;;6228937;28;20400;-83
2022/07/31 09:08:27;;;;;;;3.85;0.65;;;44.10;26.80;;;;;;6231419;28;20045;-83
2022/07/31 09:11:29;;;;;;;5.57;0.40;;;43.90;26.80;;;;;;6214010;28;20053;-84
2022/07/31 09:14:33;;;;;;;1.58;0.43;;;43.60;26.90;;;;;;6209502;28;20038;-85
2022/07/31 09:17:36;;;;;;;5.18;0.47;;;43.50;27.50;;;;;;6213195;28;20061;-84
2022/07/31 09:20:37;;;;;;;0.63;0.40;;;44.00;26.80;;;;;;6232681;22;20045;-79
2022/07/31 09:23:46;;;;;;;1.92;0.52;;;44.20;26.20;;;;;;6229674;28;20054;-80
2022/07/31 09:26:48;;;;;;;1.73;0.30;;;44.50;26.50;;;;;;6227377;28;20056;-78
2022/07/31 09:29:49;;;;;;;1.52;0.40;;;45.00;26.50;;;;;;6227512;28;20045;-79
2022/07/31 09:32:53;;;;;;;1.55;0.40;;;45.60;25.50;;;;;;6216367;28;20053;-79
2022/07/31 09:35:55;;;;;;;9.60;0.55;;;45.20;25.60;;;;;;6223834;28;20371;-79
2022/07/31 09:38:59;;;;;;;1.27;0.30;;;44.90;26.30;;;;;;6226478;28;20426;-79
2022/07/31 09:42:00;;;;;;;1.73;0.40;;;44.60;26.30;;;;;;6226936;28;20120;-79
2022/07/31 09:45:03;;;;;;;3.22;0.50;;;44.00;26.40;;;;;;6226578;28;20101;-79
2022/07/31 09:48:07;;;;;;;4.50;0.57;;;44.00;26.60;;;;;;6226840;28;20056;-79
2022/07/31 09:51:09;;;;;;;2.72;0.38;;;44.30;26.40;;;;;;6226616;28;20045;-79
2022/07/31 09:54:22;;;;;;;2.20;0.47;;;43.90;26.60;;;;;;6226719;28;20121;-79
2022/07/31 09:57:23;;;;;;;1.75;0.57;;;43.20;27.10;;;;;;6226882;28;20049;-79
2022/07/31 10:00:26;;;;;;;4.07;0.40;;;43.30;27.30;;;;;;6223871;28;20052;-79
2022/07/31 10:03:29;;;;;;;1.92;0.43;;;44.10;26.90;;;;;;6215706;28;20046;-79
2022/07/31 10:06:33;;;;;;;1.02;0.38;;;44.70;26.70;;;;;;6232628;28;20046;-78
2022/07/31 10:09:39;;;;;;;2.72;0.57;;;44.80;26.40;;;;;;6238081;28;20058;-77
2022/07/31 10:12:44;;;;;;;1.25;0.30;;;44.50;26.30;;;;;;6229530;28;20046;-79
2022/07/31 10:15:49;;;;;;;3.72;0.43;;;43.90;26.50;;;;;;6229832;28;20045;-78
2022/07/31 10:18:56;;;;;;;2.60;1.60;;;43.00;27.00;;;;;;6246266;28;20053;-78
2022/07/31 10:22:01;;;;;;;6.80;0.40;;;42.50;27.30;;;;;;6251188;28;20040;-79
2022/07/31 10:25:05;;;;;;;2.25;0.30;;;42.10;27.70;;;;;;6248634;28;20057;-78
2022/07/31 10:28:07;;;;;;;2.83;0.45;;;42.00;27.70;;;;;;6249689;28;20056;-78
2022/07/31 10:31:12;;;;;;;2.60;0.50;;;41.70;27.70;;;;;;6231248;28;20126;-78
2022/07/31 10:34:14;;;;;;;0.70;0.50;;;41.40;27.90;;;;;;6205181;28;20133;-78
2022/07/31 10:37:22;;;;;;;3.40;0.50;;;41.20;27.70;;;;;;6199063;28;20051;-78
2022/07/31 10:40:33;;;;;;;4.55;0.52;;;41.00;27.80;;;;;;6200425;28;20057;-78
2022/07/31 10:43:46;;;;;;;0.75;0.40;;;40.60;28.00;;;;;;6199573;28;20580;-77
2022/07/31 10:46:48;;;;;;;6.07;0.60;;;40.30;28.30;;;;;;6198702;28;20578;-78
2022/07/31 10:49:50;;;;;;;1.70;0.85;;;40.10;28.40;;;;;;6198810;28;20042;-77
2022/07/31 10:52:51;;;;;;;2.30;0.57;;;40.00;28.60;;;;;;6200153;28;20050;-78
2022/07/31 10:56:02;;;;;;;1.20;0.60;;;39.60;28.70;;;;;;6198700;28;20132;-77
2022/07/31 10:59:04;;;;;;;1.40;0.50;;;39.40;29.20;;;;;;6201160;28;20144;-77
2022/07/31 11:02:06;;;;;;;3.17;0.50;;;39.20;29.40;;;;;;6223052;28;20120;-78
2022/07/31 11:05:13;;;;;;;4.80;0.75;;;39.20;29.60;;;;;;6202490;28;20054;-77
2022/07/31 11:08:15;;;;;;;2.65;0.60;;;39.00;29.90;;;;;;6205782;28;20061;-78
2022/07/31 11:11:18;;;;;;;3.08;0.60;;;38.70;29.80;;;;;;6228207;28;20045;-77
2022/07/31 11:14:31;;;;;;;4.40;0.77;;;38.60;30.00;;;;;;6228233;28;20053;-78
2022/07/31 11:17:35;;;;;;;5.53;0.60;;;38.80;30.00;;;;;;6235687;28;20140;-79
2022/07/31 11:20:37;;;;;;;1.95;0.50;;;38.80;30.00;;;;;;6252398;28;20064;-77
2022/07/31 11:23:40;;;;;;;3.38;1.00;;;38.70;30.10;;;;;;6251533;28;20048;-77
2022/07/31 11:26:49;;;;;;;4.38;0.60;;;38.50;30.20;;;;;;6251691;28;20041;-76
2022/07/31 11:29:50;;;;;;;4.85;0.60;;;38.40;30.60;;;;;;6245759;28;20087;-78
2022/07/31 11:32:53;;;;;;;4.20;0.70;;;38.50;30.40;;;;;;6221341;28;20046;-78
2022/07/31 11:35:55;;;;;;;1.23;0.35;;;38.30;30.30;;;;;;6205560;28;20050;-79
2022/07/31 11:38:57;;;;;;;1.05;0.73;;;38.10;30.90;;;;;;6206156;28;20053;-78
2022/07/31 11:42:03;;;;;;;2.85;0.52;;;38.30;30.90;;;;;;6206447;28;20042;-77
2022/07/31 11:45:06;;;;;;;3.00;0.47;;;38.50;30.40;;;;;;6205742;28;20133;-78
2022/07/31 11:48:08;;;;;;;3.58;1.05;;;38.70;30.30;;;;;;6205976;28;20134;-77
2022/07/31 11:51:09;;;;;;;0.90;0.30;;;38.80;30.00;;;;;;6205975;28;20053;-77
2022/07/31 11:54:11;;;;;;;0.60;0.35;;;38.60;30.40;;;;;;6204957;28;20428;-78
2022/07/31 11:57:14;;;;;;;5.55;0.50;;;38.60;30.30;;;;;;6204987;28;20422;-78
2022/07/31 12:00:16;;;;;;;0.80;0.40;;;38.60;30.20;;;;;;6215533;28;20057;-78
2022/07/31 12:03:19;;;;;;;5.03;0.90;;;38.50;30.30;;;;;;6217960;28;20614;-78
2022/07/31 12:06:21;;;;;;;2.58;0.60;;;38.60;30.30;;;;;;6205238;28;20054;-77
2022/07/31 12:09:23;;;;;;;5.88;0.60;;;38.80;30.20;;;;;;6204884;28;20054;-77
2022/07/31 12:12:26;;;;;;;7.78;0.80;;;38.90;30.20;;;;;;6204411;28;20051;-78
2022/07/31 12:15:28;;;;;;;1.52;0.38;;;39.10;30.20;;;;;;6201684;28;20054;-78
2022/07/31 12:18:32;;;;;;;3.20;0.60;;;39.40;29.70;;;;;;6224449;28;20045;-77
2022/07/31 12:21:36;;;;;;;3.42;1.00;;;39.20;29.50;;;;;;6252059;28;20052;-79
2022/07/31 12:24:38;;;;;;;0.73;0.20;;;38.90;29.70;;;;;;6253590;28;20410;-79
2022/07/31 12:27:41;;;;;;;2.35;0.60;;;38.50;30.00;;;;;;6252890;28;20065;-79
2022/07/31 12:30:44;;;;;;;4.22;0.52;;;38.30;30.00;;;;;;6238801;28;20050;-79
2022/07/31 12:33:46;;;;;;;4.53;0.50;;;38.20;30.40;;;;;;6213111;28;20193;-79
2022/07/31 12:36:57;;;;;;;2.42;0.52;;;38.40;30.10;;;;;;6204063;28;20416;-78
2022/07/31 12:39:59;;;;;;;1.48;0.50;;;38.60;30.30;;;;;;6203436;28;20423;-77
2022/07/31 12:43:02;;;;;;;0.50;0.32;;;38.80;30.20;;;;;;6203580;28;20042;-78
2022/07/31 12:46:04;;;;;;;2.75;0.47;;;39.00;30.00;;;;;;6202423;28;20047;-78
2022/07/31 12:49:07;;;;;;;4.47;0.57;;;39.10;30.00;;;;;;6201876;28;20054;-77
2022/07/31 12:52:08;;;;;;;2.60;0.45;;;38.80;30.10;;;;;;6201740;28;20137;-78
2022/07/31 12:55:10;;;;;;;1.52;0.50;;;38.80;30.30;;;;;;6200954;28;20050;-78
2022/07/31 12:58:13;;;;;;;0.73;0.50;;;39.10;30.30;;;;;;6201502;28;20050;-78
2022/07/31 13:01:15;;;;;;;1.00;0.45;;;39.50;29.80;;;;;;6220895;28;20060;-78
2022/07/31 13:04:16;;;;;;;3.33;0.60;;;39.60;29.40;;;;;;6208532;28;20050;-78
2022/07/31 13:07:18;;;;;;;0.98;0.57;;;39.80;29.10;;;;;;6202404;28;20053;-77
2022/07/31 13:10:20;;;;;;;1.35;0.40;;;39.70;29.30;;;;;;6202972;28;20056;-78
2022/07/31 13:13:24;;;;;;;1.08;0.20;;;39.60;29.10;;;;;;6208932;28;20495;-77
2022/07/31 13:16:26;;;;;;;4.25;0.45;;;39.50;29.10;;;;;;6228186;28;20054;-79
2022/07/31 13:19:28;;;;;;;3.22;0.32;;;39.50;29.50;;;;;;6233314;28;20045;-77
2022/07/31 13:22:30;;;;;;;1.13;0.55;;;39.50;29.50;;;;;;6250600;28;20045;-78
2022/07/31 13:25:31;;;;;;;5.13;0.57;;;39.50;29.40;;;;;;6250614;28;20045;-78
2022/07/31 13:28:34;;;;;;;2.53;0.57;;;39.60;29.50;;;;;;6250186;28;20388;-77
2022/07/31 13:31:36;;;;;;;0.60;0.30;;;39.60;29.50;;;;;;6228653;28;20045;-78
2022/07/31 13:34:38;;;;;;;2.97;0.45;;;39.50;29.00;;;;;;6204299;28;20510;-78
2022/07/31 13:37:40;;;;;;;1.35;0.45;;;39.10;29.00;;;;;;6201664;28;20503;-77
2022/07/31 13:44:02;;;;;;;2.78;0.47;;;38.70;29.10;;;;;;6204509;28;20042;-77
2022/07/31 13:47:04;;;;;;;0.93;0.38;;;38.70;29.30;;;;;;6204830;28;20050;-76
2022/07/31 13:50:06;;;;;;;2.50;0.43;;;38.80;29.00;;;;;;6202335;28;20258;-78
2022/07/31 13:53:08;;;;;;;2.97;0.43;;;38.40;28.70;;;;;;6202076;28;20054;-77
2022/07/31 13:56:10;;;;;;;1.08;0.40;;;37.90;29.50;;;;;;6204752;28;20058;-78
2022/07/31 13:59:13;;;;;;;1.90;0.38;;;37.70;29.90;;;;;;6203743;28;20184;-79
2022/07/31 14:02:15;;;;;;;1.45;0.40;;;37.50;30.00;;;;;;6225207;28;20496;-79
2022/07/31 14:05:17;;;;;;;1.52;0.50;;;37.50;30.20;;;;;;6225410;28;20507;-78
2022/07/31 14:08:20;;;;;;;1.52;0.60;;;37.60;30.30;;;;;;6225823;28;20414;-78
2022/07/31 14:11:22;;;;;;;0.65;0.30;;;37.60;30.60;;;;;;6225006;28;20052;-78
2022/07/31 14:14:25;;;;;;;12.80;0.77;;;37.50;30.40;;;;;;6224761;28;20065;-78
2022/07/31 14:17:26;;;;;;;2.03;0.50;;;37.60;30.60;;;;;;6224111;28;20431;-78
2022/07/31 14:20:31;;;;;;;2.45;0.50;;;37.70;30.80;;;;;;6232807;28;20721;-79
2022/07/31 14:23:33;;;;;;;2.35;0.52;;;37.80;30.50;;;;;;6224478;28;20038;-78
2022/07/31 14:26:34;;;;;;;2.63;0.55;;;37.90;30.20;;;;;;6222627;28;20053;-79
2022/07/31 14:29:37;;;;;;;7.97;1.05;;;37.90;30.30;;;;;;6223591;28;20118;-79
2022/07/31 14:32:39;;;;;;;2.42;0.45;;;37.90;30.40;;;;;;6215566;28;20546;-78
2022/07/31 14:35:41;;;;;;;2.58;0.65;;;38.00;30.60;;;;;;6223988;28;20060;-78
2022/07/31 14:38:43;;;;;;;1.48;0.60;;;37.90;30.60;;;;;;6222709;28;20050;-78
2022/07/31 14:41:45;;;;;;;1.60;0.40;;;37.90;30.30;;;;;;6223300;28;20099;-78
2022/07/31 14:44:48;;;;;;;1.85;0.47;;;37.80;30.30;;;;;;6223966;28;20132;-79
2022/07/31 14:47:50;;;;;;;4.95;0.45;;;37.60;30.50;;;;;;6223013;28;20062;-77
2022/07/31 14:50:52;;;;;;;0.70;0.35;;;37.50;30.50;;;;;;6224051;28;20046;-79
2022/07/31 14:53:53;;;;;;;4.32;0.80;;;37.50;30.70;;;;;;6223147;28;20049;-79
2022/07/31 14:56:55;;;;;;;1.85;0.20;;;37.60;30.90;;;;;;6223434;28;20050;-78
2022/07/31 14:59:58;;;;;;;2.53;1.45;;;37.80;30.40;;;;;;6223216;28;20120;-79
2022/07/31 15:03:00;;;;;;;2.72;0.68;;;37.80;30.50;;;;;;6211489;28;20041;-78
2022/07/31 15:06:02;;;;;;;4.00;0.45;;;37.70;30.40;;;;;;6200868;28;20050;-79
2022/07/31 15:09:04;;;;;;;1.30;0.55;;;37.80;30.70;;;;;;6199807;28;20420;-77
2022/07/31 15:12:07;;;;;;;1.33;0.50;;;38.00;30.60;;;;;;6199824;28;20057;-78
2022/07/31 15:15:10;;;;;;;2.70;0.60;;;38.10;30.40;;;;;;6200380;28;20438;-78
2022/07/31 15:18:12;;;;;;;1.08;0.30;;;37.90;30.20;;;;;;6200653;28;20054;-78
2022/07/31 15:21:15;;;;;;;6.22;0.80;;;37.70;30.20;;;;;;6177569;28;1075411;-77
2022/07/31 15:24:16;;;;;;;4.75;0.63;;;37.60;30.50;;;;;;6246675;28;20069;-77
2022/07/31 15:27:20;;;;;;;3.17;0.43;;;37.60;31.00;;;;;;6245687;28;20045;-77
2022/07/31 15:30:23;;;;;;;0.63;0.40;;;37.50;29.90;;;;;;6219395;28;20088;-77
2022/07/31 15:33:26;;;;;;;1.80;0.50;;;37.50;29.60;;;;;;6233238;28;20053;-77
2022/07/31 15:36:27;;;;;;;5.07;1.25;;;37.80;29.60;;;;;;6217893;28;20049;-76
2022/07/31 15:39:29;;;;;;;4.78;0.68;;;38.00;29.40;;;;;;6228785;28;20054;-77
2022/07/31 15:42:31;;;;;;;1.38;0.30;;;38.20;29.20;;;;;;6223357;28;20042;-79
2022/07/31 15:45:34;;;;;;;1.45;0.20;;;38.30;29.00;;;;;;6228405;28;20050;-78
2022/07/31 15:48:37;;;;;;;1.70;0.98;;;38.40;28.80;;;;;;6227079;28;20042;-77
2022/07/31 15:51:39;;;;;;;1.85;0.25;;;38.40;29.10;;;;;;6222291;28;20410;-76
2022/07/31 15:54:41;;;;;;;3.75;0.20;;;38.40;28.80;;;;;;6233061;28;20073;-77
2022/07/31 15:57:43;;;;;;;3.72;0.38;;;38.30;28.80;;;;;;6226179;28;20050;-78